createdAt,value
2019-03-20T00:00:51.565Z,1.10
2019-03-20T00:01:29.621Z,1.10
2019-03-20T00:02:07.473Z,1.10
2019-03-20T00:02:45.642Z,1.10
2019-03-20T00:03:23.631Z,1.10
2019-03-20T00:04:01.584Z,1.10
2019-03-20T00:04:49.031Z,1.10
2019-03-20T00:05:18.479Z,1.10
2019-03-20T00:05:56.462Z,1.10
2019-03-20T00:06:34.282Z,1.10
2019-03-20T00:07:12.312Z,1.00
2019-03-20T00:07:50.130Z,1.10
2019-03-20T00:08:27.328Z,1.10
2019-03-20T00:09:06.669Z,1.10
2019-03-20T00:09:44.350Z,1.00
2019-03-20T00:10:21.595Z,1.00
2019-03-20T00:10:59.584Z,1.00
2019-03-20T00:11:37.266Z,1.00
2019-03-20T00:12:14.863Z,1.00
2019-03-20T00:12:52.339Z,1.00
2019-03-20T00:13:29.708Z,1.00
2019-03-20T00:14:07.393Z,1.00
2019-03-20T00:14:44.863Z,1.00
2019-03-20T00:15:22.360Z,1.00
2019-03-20T00:16:00.436Z,1.00
2019-03-20T00:16:38.586Z,1.00
2019-03-20T00:17:15.616Z,1.00
2019-03-20T00:17:53.536Z,1.00
2019-03-20T00:18:31.304Z,1.00
2019-03-20T00:19:08.970Z,1.00
2019-03-20T00:19:46.522Z,0.90
2019-03-20T00:20:24.318Z,1.00
2019-03-20T00:21:01.548Z,0.90
2019-03-20T00:21:39.214Z,0.90
2019-03-20T00:22:16.866Z,1.00
2019-03-20T00:22:54.444Z,0.90
2019-03-20T00:23:31.938Z,0.90
2019-03-20T00:24:09.710Z,0.90
2019-03-20T00:24:47.513Z,0.90
2019-03-20T00:25:24.611Z,0.90
2019-03-20T00:26:01.638Z,0.90
2019-03-20T00:26:39.095Z,0.90
2019-03-20T00:27:17.112Z,0.90
2019-03-20T00:27:54.175Z,0.90
2019-03-20T00:28:31.959Z,0.90
2019-03-20T00:29:09.700Z,1.00
2019-03-20T00:29:48.689Z,1.00
2019-03-20T00:30:26.188Z,0.90
2019-03-20T00:31:03.860Z,1.00
2019-03-20T00:31:41.834Z,1.00
2019-03-20T00:32:18.984Z,1.00
2019-03-20T00:32:56.770Z,1.00
2019-03-20T00:33:34.594Z,1.00
2019-03-20T00:34:12.334Z,1.00
2019-03-20T00:35:00.356Z,1.00
2019-03-20T00:35:29.626Z,1.00
2019-03-20T00:36:07.020Z,1.00
2019-03-20T00:36:44.984Z,1.00
2019-03-20T00:37:22.388Z,1.00
2019-03-20T00:37:59.458Z,1.00
2019-03-20T00:38:37.043Z,1.00
2019-03-20T00:39:14.824Z,1.00
2019-03-20T00:39:52.685Z,1.00
2019-03-20T00:40:30.712Z,1.00
2019-03-20T00:41:08.724Z,1.00
2019-03-20T00:41:46.184Z,1.00
2019-03-20T00:42:24.012Z,0.90
2019-03-20T00:43:01.776Z,0.90
2019-03-20T00:43:39.669Z,0.90
2019-03-20T00:44:17.184Z,0.90
2019-03-20T00:44:54.298Z,0.90
2019-03-20T00:45:31.765Z,0.90
2019-03-20T00:46:09.550Z,0.90
2019-03-20T00:46:46.978Z,0.90
2019-03-20T00:47:24.466Z,0.90
2019-03-20T00:48:02.500Z,0.90
2019-03-20T00:48:39.972Z,0.90
2019-03-20T00:49:17.352Z,0.90
2019-03-20T00:49:54.928Z,0.90
2019-03-20T00:50:32.852Z,0.90
2019-03-20T00:51:10.400Z,0.90
2019-03-20T00:51:48.088Z,0.90
2019-03-20T00:52:25.986Z,0.90
2019-03-20T00:53:03.996Z,0.90
2019-03-20T00:53:42.093Z,0.90
2019-03-20T00:54:20.198Z,0.90
2019-03-20T00:54:58.140Z,0.90
2019-03-20T00:55:36.113Z,0.90
2019-03-20T00:56:13.204Z,0.90
2019-03-20T00:56:52.331Z,0.90
2019-03-20T00:57:30.518Z,0.90
2019-03-20T00:58:08.192Z,0.90
2019-03-20T00:58:45.929Z,0.90
2019-03-20T00:59:23.616Z,0.90
2019-03-20T01:00:01.077Z,0.90
2019-03-20T01:00:40.316Z,0.90
2019-03-20T01:01:18.494Z,0.90
2019-03-20T01:01:56.294Z,0.90
2019-03-20T01:02:34.136Z,0.90
2019-03-20T01:03:12.252Z,0.90
2019-03-20T01:03:50.302Z,0.90
2019-03-20T01:04:28.390Z,0.90
2019-03-20T01:05:12.422Z,0.90
2019-03-20T01:05:46.318Z,0.90
2019-03-20T01:06:24.014Z,0.90
2019-03-20T01:07:01.848Z,0.90
2019-03-20T01:07:39.862Z,0.90
2019-03-20T01:08:17.272Z,0.90
2019-03-20T01:08:55.160Z,0.90
2019-03-20T01:09:32.770Z,0.90
2019-03-20T01:10:12.570Z,0.80
2019-03-20T01:10:50.476Z,0.90
2019-03-20T01:11:28.192Z,0.90
2019-03-20T01:12:06.278Z,0.90
2019-03-20T01:12:44.592Z,0.80
2019-03-20T01:13:22.815Z,0.90
2019-03-20T01:14:00.854Z,0.80
2019-03-20T01:14:38.434Z,0.80
2019-03-20T01:15:16.758Z,0.90
2019-03-20T01:15:54.840Z,0.80
2019-03-20T01:16:32.745Z,0.90
2019-03-20T01:17:10.128Z,0.80
2019-03-20T01:17:47.921Z,0.90
2019-03-20T01:18:25.458Z,0.80
2019-03-20T01:19:02.987Z,0.90
2019-03-20T01:19:40.750Z,0.90
2019-03-20T01:20:18.863Z,0.90
2019-03-20T01:20:56.580Z,0.90
2019-03-20T01:21:34.066Z,0.90
2019-03-20T01:22:12.170Z,0.90
2019-03-20T01:22:50.013Z,0.90
2019-03-20T01:23:27.983Z,0.90
2019-03-20T01:24:06.134Z,0.90
2019-03-20T01:24:43.971Z,0.90
2019-03-20T01:25:22.004Z,0.90
2019-03-20T01:25:59.167Z,0.90
2019-03-20T01:26:37.190Z,0.90
2019-03-20T01:27:14.548Z,0.90
2019-03-20T01:27:51.775Z,0.90
2019-03-20T01:28:29.508Z,0.90
2019-03-20T01:29:07.284Z,0.90
2019-03-20T01:29:45.168Z,0.90
2019-03-20T01:30:32.684Z,0.90
2019-03-20T01:31:09.966Z,0.90
2019-03-20T01:31:47.440Z,0.90
2019-03-20T01:32:24.763Z,0.90
2019-03-20T01:33:03.429Z,0.90
2019-03-20T01:33:41.004Z,0.90
2019-03-20T01:34:18.664Z,0.90
2019-03-20T01:34:56.291Z,0.90
2019-03-20T01:35:33.750Z,0.90
2019-03-20T01:36:11.524Z,0.90
2019-03-20T01:36:49.546Z,0.90
2019-03-20T01:37:26.904Z,0.90
2019-03-20T01:38:05.101Z,0.90
2019-03-20T01:38:43.187Z,0.90
2019-03-20T01:39:20.253Z,0.90
2019-03-20T01:39:57.973Z,0.90
2019-03-20T01:40:35.418Z,0.90
2019-03-20T01:41:13.432Z,0.90
2019-03-20T01:41:50.525Z,0.90
2019-03-20T01:42:28.189Z,0.90
2019-03-20T01:43:06.421Z,0.90
2019-03-20T01:43:43.876Z,0.90
2019-03-20T01:44:21.212Z,0.90
2019-03-20T01:44:58.858Z,0.90
2019-03-20T01:45:36.265Z,0.90
2019-03-20T01:46:14.053Z,0.90
2019-03-20T01:46:51.766Z,0.90
2019-03-20T01:47:29.216Z,0.90
2019-03-20T01:48:07.146Z,0.90
2019-03-20T01:48:44.866Z,0.90
2019-03-20T01:49:22.776Z,0.90
2019-03-20T01:50:00.389Z,0.90
2019-03-20T01:50:37.837Z,0.90
2019-03-20T01:51:19.672Z,0.90
2019-03-20T01:51:57.756Z,0.90
2019-03-20T01:52:35.085Z,0.90
2019-03-20T01:53:12.801Z,0.90
2019-03-20T01:53:50.149Z,0.90
2019-03-20T01:54:27.260Z,0.90
2019-03-20T01:55:05.560Z,0.90
2019-03-20T01:55:42.688Z,0.90
2019-03-20T01:56:20.710Z,0.90
2019-03-20T01:56:58.096Z,0.90
2019-03-20T01:57:35.840Z,0.90
2019-03-20T01:58:13.256Z,0.90
2019-03-20T01:58:50.386Z,0.90
2019-03-20T01:59:28.024Z,0.90
2019-03-20T02:00:06.157Z,0.90
2019-03-20T02:00:43.804Z,0.90
2019-03-20T02:01:21.708Z,0.90
2019-03-20T02:01:59.340Z,0.90
2019-03-20T02:02:37.427Z,0.90
2019-03-20T02:03:15.361Z,0.90
2019-03-20T02:03:53.038Z,0.90
2019-03-20T02:04:30.894Z,0.90
2019-03-20T02:05:08.169Z,0.90
2019-03-20T02:05:45.564Z,0.90
2019-03-20T02:06:23.325Z,0.90
2019-03-20T02:07:01.313Z,0.90
2019-03-20T02:07:39.363Z,0.90
2019-03-20T02:08:17.179Z,0.90
2019-03-20T02:08:54.867Z,0.90
2019-03-20T02:09:32.894Z,0.90
2019-03-20T02:10:12.012Z,0.90
2019-03-20T02:10:49.817Z,0.90
2019-03-20T02:11:26.559Z,0.90
2019-03-20T02:12:04.093Z,0.90
2019-03-20T02:12:42.185Z,0.90
2019-03-20T02:13:20.225Z,0.90
2019-03-20T02:13:57.970Z,0.90
2019-03-20T02:14:35.488Z,0.90
2019-03-20T02:15:14.765Z,0.90
2019-03-20T02:15:52.668Z,0.90
2019-03-20T02:16:30.401Z,0.90
2019-03-20T02:17:08.006Z,0.90
2019-03-20T02:17:46.272Z,0.90
2019-03-20T02:18:23.758Z,0.90
2019-03-20T02:19:01.112Z,0.90
2019-03-20T02:19:39.055Z,0.90
2019-03-20T02:20:17.860Z,0.90
2019-03-20T02:20:55.061Z,0.90
2019-03-20T02:21:32.780Z,0.90
2019-03-20T02:22:10.231Z,0.90
2019-03-20T02:22:48.526Z,0.90
2019-03-20T02:23:25.527Z,0.90
2019-03-20T02:24:03.262Z,0.80
2019-03-20T02:24:40.739Z,0.80
2019-03-20T02:25:18.776Z,0.90
2019-03-20T02:25:56.790Z,0.90
2019-03-20T02:26:34.475Z,0.80
2019-03-20T02:27:12.513Z,0.90
2019-03-20T02:27:49.917Z,0.80
2019-03-20T02:28:27.364Z,0.80
2019-03-20T02:29:05.078Z,0.80
2019-03-20T02:29:42.842Z,0.80
2019-03-20T02:30:20.313Z,0.80
2019-03-20T02:30:58.006Z,0.80
2019-03-20T02:31:35.721Z,0.80
2019-03-20T02:32:13.375Z,0.80
2019-03-20T02:32:51.186Z,0.80
2019-03-20T02:33:28.528Z,0.80
2019-03-20T02:34:05.704Z,0.80
2019-03-20T02:34:43.830Z,0.80
2019-03-20T02:35:21.742Z,0.80
2019-03-20T02:35:59.365Z,0.80
2019-03-20T02:36:36.969Z,0.80
2019-03-20T02:37:14.757Z,0.70
2019-03-20T02:37:52.521Z,0.70
2019-03-20T02:38:30.535Z,0.80
2019-03-20T02:39:08.468Z,0.80
2019-03-20T02:39:46.473Z,0.70
2019-03-20T02:40:23.676Z,0.70
2019-03-20T02:41:01.554Z,0.70
2019-03-20T02:41:39.339Z,0.70
2019-03-20T02:42:17.041Z,0.70
2019-03-20T02:42:54.563Z,0.70
2019-03-20T02:43:32.177Z,0.70
2019-03-20T02:44:09.660Z,0.70
2019-03-20T02:44:47.415Z,0.70
2019-03-20T02:45:24.827Z,0.70
2019-03-20T02:46:02.498Z,0.70
2019-03-20T02:46:39.570Z,0.70
2019-03-20T02:47:17.587Z,0.70
2019-03-20T02:47:55.680Z,0.70
2019-03-20T02:48:33.342Z,0.70
2019-03-20T02:49:11.145Z,0.70
2019-03-20T02:49:48.610Z,0.60
2019-03-20T02:50:26.314Z,0.60
2019-03-20T02:51:04.064Z,0.70
2019-03-20T02:51:42.099Z,0.70
2019-03-20T02:52:20.008Z,0.70
2019-03-20T02:52:58.274Z,0.70
2019-03-20T02:53:35.960Z,0.60
2019-03-20T02:54:14.004Z,0.70
2019-03-20T02:54:51.753Z,0.70
2019-03-20T02:55:29.493Z,0.70
2019-03-20T02:56:06.663Z,0.60
2019-03-20T02:56:44.376Z,0.70
2019-03-20T02:57:21.477Z,0.60
2019-03-20T02:57:59.596Z,0.70
2019-03-20T02:58:37.305Z,0.70
2019-03-20T02:59:15.312Z,0.70
2019-03-20T02:59:53.300Z,0.70
2019-03-20T03:00:30.507Z,0.60
2019-03-20T03:01:08.601Z,0.60
2019-03-20T03:01:46.430Z,0.60
2019-03-20T03:02:24.319Z,0.70
2019-03-20T03:03:02.182Z,0.60
2019-03-20T03:03:40.223Z,0.70
2019-03-20T03:04:18.238Z,0.60
2019-03-20T03:04:57.354Z,0.60
2019-03-20T03:05:35.160Z,0.70
2019-03-20T03:06:12.524Z,0.70
2019-03-20T03:06:50.284Z,0.60
2019-03-20T03:07:28.374Z,0.60
2019-03-20T03:08:06.463Z,0.70
2019-03-20T03:08:43.834Z,0.60
2019-03-20T03:09:21.846Z,0.70
2019-03-20T03:09:59.590Z,0.70
2019-03-20T03:10:37.298Z,0.60
2019-03-20T03:11:14.733Z,0.60
2019-03-20T03:11:52.225Z,0.60
2019-03-20T03:12:29.559Z,0.60
2019-03-20T03:13:06.989Z,0.60
2019-03-20T03:13:44.186Z,0.60
2019-03-20T03:14:21.865Z,0.60
2019-03-20T03:14:59.855Z,0.60
2019-03-20T03:15:37.940Z,0.60
2019-03-20T03:16:15.764Z,0.60
2019-03-20T03:16:53.609Z,0.60
2019-03-20T03:17:31.048Z,0.60
2019-03-20T03:18:08.498Z,0.60
2019-03-20T03:18:45.626Z,0.60
2019-03-20T03:19:23.435Z,0.60
2019-03-20T03:20:00.882Z,0.60
2019-03-20T03:20:38.614Z,0.60
2019-03-20T03:21:16.365Z,0.60
2019-03-20T03:21:54.074Z,0.60
2019-03-20T03:22:32.084Z,0.60
2019-03-20T03:23:09.815Z,0.60
2019-03-20T03:23:47.851Z,0.60
2019-03-20T03:24:25.288Z,0.50
2019-03-20T03:25:03.024Z,0.60
2019-03-20T03:25:41.106Z,0.60
2019-03-20T03:26:19.096Z,0.50
2019-03-20T03:26:56.182Z,0.50
2019-03-20T03:27:33.969Z,0.50
2019-03-20T03:28:11.425Z,0.50
2019-03-20T03:28:49.112Z,0.50
2019-03-20T03:29:26.160Z,0.50
2019-03-20T03:30:04.021Z,0.50
2019-03-20T03:30:41.802Z,0.50
2019-03-20T03:31:19.652Z,0.50
2019-03-20T03:31:57.609Z,0.50
2019-03-20T03:32:35.618Z,0.50
2019-03-20T03:33:13.581Z,0.50
2019-03-20T03:33:51.057Z,0.50
2019-03-20T03:34:28.829Z,0.50
2019-03-20T03:35:06.883Z,0.50
2019-03-20T03:35:44.581Z,0.40
2019-03-20T03:36:22.106Z,0.50
2019-03-20T03:37:05.437Z,0.50
2019-03-20T03:37:43.534Z,0.50
2019-03-20T03:38:21.339Z,0.40
2019-03-20T03:38:59.124Z,0.40
2019-03-20T03:39:37.312Z,0.40
2019-03-20T03:40:14.972Z,0.40
2019-03-20T03:40:53.298Z,0.40
2019-03-20T03:41:31.525Z,0.40
2019-03-20T03:42:09.891Z,0.40
2019-03-20T03:42:47.963Z,0.40
2019-03-20T03:43:25.488Z,0.40
2019-03-20T03:44:03.817Z,0.40
2019-03-20T03:44:41.402Z,0.50
2019-03-20T03:45:18.995Z,0.50
2019-03-20T03:45:56.727Z,0.50
2019-03-20T03:46:34.609Z,0.50
2019-03-20T03:47:12.572Z,0.50
2019-03-20T03:47:50.604Z,0.40
2019-03-20T03:48:28.327Z,0.50
2019-03-20T03:49:06.616Z,0.50
2019-03-20T03:49:44.105Z,0.50
2019-03-20T03:50:21.759Z,0.50
2019-03-20T03:50:59.214Z,0.50
2019-03-20T03:51:37.641Z,0.50
2019-03-20T03:52:15.374Z,0.50
2019-03-20T03:52:53.081Z,0.50
2019-03-20T03:53:30.818Z,0.50
2019-03-20T03:54:08.600Z,0.50
2019-03-20T03:54:46.391Z,0.40
2019-03-20T03:55:23.973Z,0.40
2019-03-20T03:56:01.387Z,0.40
2019-03-20T03:56:39.079Z,0.40
2019-03-20T03:57:16.837Z,0.40
2019-03-20T03:57:54.937Z,0.40
2019-03-20T03:58:32.942Z,0.40
2019-03-20T03:59:10.987Z,0.40
2019-03-20T03:59:49.430Z,0.40
2019-03-20T04:00:27.169Z,0.40
2019-03-20T04:01:05.263Z,0.40
2019-03-20T04:01:43.157Z,0.40
2019-03-20T04:02:20.947Z,0.40
2019-03-20T04:02:59.063Z,0.30
2019-03-20T04:03:37.155Z,0.30
2019-03-20T04:04:15.171Z,0.30
2019-03-20T04:04:53.188Z,0.30
2019-03-20T04:05:30.926Z,0.30
2019-03-20T04:06:08.001Z,0.30
2019-03-20T04:06:45.848Z,0.30
2019-03-20T04:07:23.779Z,0.30
2019-03-20T04:08:01.631Z,0.30
2019-03-20T04:08:39.355Z,0.40
2019-03-20T04:09:17.328Z,0.30
2019-03-20T04:09:55.263Z,0.30
2019-03-20T04:10:33.207Z,0.40
2019-03-20T04:11:11.171Z,0.40
2019-03-20T04:11:49.211Z,0.30
2019-03-20T04:12:26.974Z,0.40
2019-03-20T04:13:04.751Z,0.40
2019-03-20T04:13:42.205Z,0.30
2019-03-20T04:14:20.095Z,0.40
2019-03-20T04:14:58.116Z,0.40
2019-03-20T04:15:36.571Z,0.40
2019-03-20T04:16:14.033Z,0.40
2019-03-20T04:16:51.990Z,0.30
2019-03-20T04:17:29.628Z,0.40
2019-03-20T04:18:07.252Z,0.40
2019-03-20T04:18:45.044Z,0.40
2019-03-20T04:19:22.916Z,0.40
2019-03-20T04:20:00.549Z,0.40
2019-03-20T04:20:38.110Z,0.40
2019-03-20T04:21:15.333Z,0.40
2019-03-20T04:21:52.813Z,0.40
2019-03-20T04:22:30.203Z,0.40
2019-03-20T04:23:08.240Z,0.40
2019-03-20T04:23:46.296Z,0.40
2019-03-20T04:24:23.783Z,0.40
2019-03-20T04:25:01.567Z,0.40
2019-03-20T04:25:39.713Z,0.40
2019-03-20T04:26:17.464Z,0.40
2019-03-20T04:26:55.328Z,0.40
2019-03-20T04:27:33.308Z,0.40
2019-03-20T04:28:10.191Z,0.40
2019-03-20T04:28:47.859Z,0.40
2019-03-20T04:29:25.056Z,0.40
2019-03-20T04:30:03.011Z,0.40
2019-03-20T04:30:40.712Z,0.40
2019-03-20T04:31:21.076Z,0.40
2019-03-20T04:31:59.103Z,0.40
2019-03-20T04:32:37.124Z,0.40
2019-03-20T04:33:15.040Z,0.40
2019-03-20T04:33:52.825Z,0.30
2019-03-20T04:34:30.050Z,0.30
2019-03-20T04:35:08.525Z,0.40
2019-03-20T04:35:45.652Z,0.40
2019-03-20T04:36:22.762Z,0.40
2019-03-20T04:37:00.196Z,0.40
2019-03-20T04:37:37.690Z,0.40
2019-03-20T04:38:15.382Z,0.40
2019-03-20T04:38:53.064Z,0.40
2019-03-20T04:39:30.748Z,0.40
2019-03-20T04:40:09.276Z,0.40
2019-03-20T04:40:47.272Z,0.40
2019-03-20T04:41:25.506Z,0.40
2019-03-20T04:42:03.521Z,0.40
2019-03-20T04:42:40.784Z,0.40
2019-03-20T04:43:19.018Z,0.40
2019-03-20T04:43:57.007Z,0.30
2019-03-20T04:44:40.576Z,0.30
2019-03-20T04:45:18.300Z,0.40
2019-03-20T04:45:55.881Z,0.30
2019-03-20T04:46:33.682Z,0.40
2019-03-20T04:47:11.879Z,0.30
2019-03-20T04:47:50.132Z,0.40
2019-03-20T04:48:30.609Z,0.30
2019-03-20T04:49:08.402Z,0.30
2019-03-20T04:49:46.297Z,0.40
2019-03-20T04:50:24.266Z,0.40
2019-03-20T04:51:01.972Z,0.40
2019-03-20T04:51:40.124Z,0.40
2019-03-20T04:52:18.340Z,0.40
2019-03-20T04:52:56.224Z,0.40
2019-03-20T04:53:33.949Z,0.40
2019-03-20T04:54:11.432Z,0.40
2019-03-20T04:54:49.106Z,0.40
2019-03-20T04:55:26.437Z,0.40
2019-03-20T04:56:04.251Z,0.40
2019-03-20T04:56:50.828Z,0.40
2019-03-20T04:57:28.710Z,0.40
2019-03-20T04:58:06.404Z,0.40
2019-03-20T04:58:43.628Z,0.40
2019-03-20T04:59:21.248Z,0.40
2019-03-20T04:59:58.665Z,0.40
2019-03-20T05:00:36.109Z,0.40
2019-03-20T05:01:14.216Z,0.40
2019-03-20T05:01:51.661Z,0.40
2019-03-20T05:02:29.145Z,0.40
2019-03-20T05:03:06.977Z,0.40
2019-03-20T05:03:44.812Z,0.40
2019-03-20T05:04:22.058Z,0.40
2019-03-20T05:05:00.336Z,0.40
2019-03-20T05:05:38.116Z,0.40
2019-03-20T05:06:15.360Z,0.40
2019-03-20T05:06:58.901Z,0.40
2019-03-20T05:07:32.280Z,0.40
2019-03-20T05:08:09.736Z,0.50
2019-03-20T05:08:47.483Z,0.50
2019-03-20T05:09:24.592Z,0.50
2019-03-20T05:10:01.444Z,0.50
2019-03-20T05:10:39.254Z,0.50
2019-03-20T05:11:16.952Z,0.50
2019-03-20T05:11:55.912Z,0.60
2019-03-20T05:12:34.028Z,0.60
2019-03-20T05:13:11.190Z,0.60
2019-03-20T05:13:49.294Z,0.60
2019-03-20T05:14:26.600Z,0.60
2019-03-20T05:15:04.948Z,0.60
2019-03-20T05:15:42.459Z,0.70
2019-03-20T05:16:19.931Z,0.70
2019-03-20T05:16:57.886Z,0.70
2019-03-20T05:17:36.001Z,0.70
2019-03-20T05:18:13.706Z,0.70
2019-03-20T05:18:51.168Z,0.70
2019-03-20T05:19:28.652Z,0.70
2019-03-20T05:20:07.403Z,0.70
2019-03-20T05:20:44.848Z,0.70
2019-03-20T05:21:22.316Z,0.70
2019-03-20T05:21:59.678Z,0.70
2019-03-20T05:22:36.858Z,0.80
2019-03-20T05:23:14.642Z,0.80
2019-03-20T05:23:52.226Z,0.80
2019-03-20T05:24:29.709Z,0.80
2019-03-20T05:25:07.853Z,0.90
2019-03-20T05:25:45.742Z,0.90
2019-03-20T05:26:23.709Z,0.90
2019-03-20T05:27:01.670Z,0.90
2019-03-20T05:27:39.281Z,1.00
2019-03-20T05:28:17.149Z,1.00
2019-03-20T05:28:55.276Z,1.00
2019-03-20T05:29:32.819Z,1.10
2019-03-20T05:30:11.482Z,1.10
2019-03-20T05:30:49.626Z,1.10
2019-03-20T05:31:27.099Z,1.20
2019-03-20T05:32:04.260Z,1.20
2019-03-20T05:32:41.436Z,1.30
2019-03-20T05:33:19.354Z,1.30
2019-03-20T05:33:57.052Z,1.30
2019-03-20T05:34:35.077Z,1.40
2019-03-20T05:35:13.034Z,1.40
2019-03-20T05:35:50.870Z,1.50
2019-03-20T05:36:28.712Z,1.50
2019-03-20T05:37:10.592Z,1.60
2019-03-20T05:37:46.209Z,1.60
2019-03-20T05:38:23.725Z,1.70
2019-03-20T05:39:01.517Z,1.70
2019-03-20T05:39:38.729Z,1.70
2019-03-20T05:40:15.984Z,1.80
2019-03-20T05:40:54.240Z,1.80
2019-03-20T05:41:31.865Z,1.90
2019-03-20T05:42:09.671Z,1.90
2019-03-20T05:42:47.960Z,2.00
2019-03-20T05:43:25.684Z,2.00
2019-03-20T05:44:03.692Z,2.00
2019-03-20T05:44:42.002Z,2.10
2019-03-20T05:45:25.502Z,2.10
2019-03-20T05:46:03.362Z,2.20
2019-03-20T05:46:41.462Z,2.20
2019-03-20T05:47:19.330Z,2.20
2019-03-20T05:47:57.420Z,2.30
2019-03-20T05:48:35.250Z,2.30
2019-03-20T05:49:18.560Z,2.40
2019-03-20T05:49:55.690Z,2.40
2019-03-20T05:50:33.336Z,2.40
2019-03-20T05:51:10.838Z,2.50
2019-03-20T05:51:48.736Z,2.50
2019-03-20T05:52:26.320Z,2.50
2019-03-20T05:53:06.494Z,2.50
2019-03-20T05:53:43.984Z,2.50
2019-03-20T05:54:21.820Z,2.50
2019-03-20T05:54:59.790Z,2.60
2019-03-20T05:55:37.604Z,2.60
2019-03-20T05:56:15.684Z,2.60
2019-03-20T05:56:53.694Z,2.60
2019-03-20T05:57:31.680Z,2.60
2019-03-20T05:58:09.329Z,2.60
2019-03-20T05:58:47.141Z,2.60
2019-03-20T05:59:24.857Z,2.60
2019-03-20T06:00:03.133Z,2.60
2019-03-20T06:00:41.012Z,2.60
2019-03-20T06:01:19.049Z,2.60
2019-03-20T06:01:57.040Z,2.70
2019-03-20T06:02:34.567Z,2.70
2019-03-20T06:03:12.207Z,2.70
2019-03-20T06:03:50.045Z,2.70
2019-03-20T06:04:28.161Z,2.80
2019-03-20T06:05:06.481Z,2.80
2019-03-20T06:05:44.061Z,2.90
2019-03-20T06:06:21.744Z,2.90
2019-03-20T06:06:59.424Z,2.90
2019-03-20T06:07:37.276Z,3.00
2019-03-20T06:08:14.444Z,3.00
2019-03-20T06:08:52.482Z,3.00
2019-03-20T06:09:30.039Z,3.10
2019-03-20T06:10:09.380Z,3.10
2019-03-20T06:10:47.477Z,3.10
2019-03-20T06:11:25.220Z,3.20
2019-03-20T06:12:06.614Z,3.20
2019-03-20T06:12:45.833Z,3.20
2019-03-20T06:13:28.434Z,3.30
2019-03-20T06:14:08.898Z,3.30
2019-03-20T06:14:47.838Z,3.30
2019-03-20T06:15:26.328Z,3.30
2019-03-20T06:16:03.993Z,3.30
2019-03-20T06:16:42.238Z,3.40
2019-03-20T06:17:20.338Z,3.40
2019-03-20T06:17:57.828Z,3.40
2019-03-20T06:18:35.017Z,3.40
2019-03-20T06:19:12.499Z,3.40
2019-03-20T06:19:50.356Z,3.50
2019-03-20T06:20:28.208Z,3.50
2019-03-20T06:21:06.202Z,3.50
2019-03-20T06:21:44.226Z,3.50
2019-03-20T06:22:22.636Z,3.50
2019-03-20T06:23:00.511Z,3.50
2019-03-20T06:23:38.358Z,3.50
2019-03-20T06:24:16.084Z,3.50
2019-03-20T06:24:53.896Z,3.60
2019-03-20T06:25:31.734Z,3.60
2019-03-20T06:26:10.156Z,3.50
2019-03-20T06:26:47.766Z,3.50
2019-03-20T06:27:25.657Z,3.50
2019-03-20T06:28:03.485Z,3.50
2019-03-20T06:28:40.992Z,3.50
2019-03-20T06:29:20.092Z,3.50
2019-03-20T06:29:58.047Z,3.50
2019-03-20T06:30:34.891Z,3.50
2019-03-20T06:31:12.575Z,3.50
2019-03-20T06:31:50.668Z,3.50
2019-03-20T06:32:28.429Z,3.50
2019-03-20T06:33:06.096Z,3.50
2019-03-20T06:33:44.073Z,3.50
2019-03-20T06:34:21.709Z,3.50
2019-03-20T06:34:59.578Z,3.50
2019-03-20T06:35:37.720Z,3.60
2019-03-20T06:36:15.481Z,3.60
2019-03-20T06:36:53.109Z,3.60
2019-03-20T06:37:32.742Z,3.60
2019-03-20T06:38:16.277Z,3.60
2019-03-20T06:38:59.955Z,3.70
2019-03-20T06:39:37.325Z,3.70
2019-03-20T06:40:15.165Z,3.80
2019-03-20T06:40:52.920Z,3.80
2019-03-20T06:41:30.263Z,3.80
2019-03-20T06:42:07.603Z,3.80
2019-03-20T06:42:45.139Z,3.90
2019-03-20T06:43:22.867Z,3.90
2019-03-20T06:44:00.880Z,3.90
2019-03-20T06:44:38.331Z,4.00
2019-03-20T06:45:16.463Z,4.00
2019-03-20T06:45:54.256Z,4.00
2019-03-20T06:46:31.631Z,4.10
2019-03-20T06:47:09.681Z,4.10
2019-03-20T06:47:47.644Z,4.10
2019-03-20T06:48:25.592Z,4.10
2019-03-20T06:49:03.148Z,4.20
2019-03-20T06:49:40.829Z,4.20
2019-03-20T06:50:18.413Z,4.20
2019-03-20T06:51:15.080Z,4.20
2019-03-20T06:51:53.056Z,4.20
2019-03-20T06:52:30.825Z,4.30
2019-03-20T06:53:08.125Z,4.30
2019-03-20T06:53:46.365Z,4.30
2019-03-20T06:54:24.203Z,4.40
2019-03-20T06:55:01.701Z,4.40
2019-03-20T06:55:39.091Z,4.40
2019-03-20T06:56:16.866Z,4.40
2019-03-20T06:56:54.532Z,4.40
2019-03-20T06:57:32.385Z,4.50
2019-03-20T06:58:10.161Z,4.50
2019-03-20T06:58:48.239Z,4.50
2019-03-20T07:00:10.427Z,4.50
2019-03-20T07:01:20.877Z,4.50
2019-03-20T07:01:58.664Z,4.60
2019-03-20T07:02:36.113Z,4.60
2019-03-20T07:03:20.283Z,4.60
2019-03-20T07:04:23.032Z,4.70
2019-03-20T07:05:16.777Z,4.70
2019-03-20T07:06:02.533Z,4.70
2019-03-20T07:06:56.096Z,4.80
2019-03-20T07:07:44.193Z,4.80
2019-03-20T07:08:17.107Z,4.80
2019-03-20T07:08:58.136Z,4.90
2019-03-20T07:09:59.064Z,4.90
2019-03-20T07:10:49.980Z,4.90
2019-03-20T07:11:25.742Z,4.90
2019-03-20T07:12:03.461Z,5.00
2019-03-20T07:12:41.023Z,5.00
2019-03-20T07:13:18.473Z,5.00
2019-03-20T07:13:56.496Z,5.10
2019-03-20T07:14:33.683Z,5.10
2019-03-20T07:15:11.414Z,5.10
2019-03-20T07:15:49.510Z,5.20
2019-03-20T07:16:27.219Z,5.20
2019-03-20T07:17:03.981Z,5.20
2019-03-20T07:17:41.673Z,5.20
2019-03-20T07:18:19.465Z,5.30
2019-03-20T07:18:57.430Z,5.30
2019-03-20T07:19:35.252Z,5.40
2019-03-20T07:20:13.361Z,5.40
2019-03-20T07:20:56.301Z,5.40
2019-03-20T07:21:34.091Z,5.50
2019-03-20T07:22:12.279Z,5.50
2019-03-20T07:22:50.087Z,5.50
2019-03-20T07:23:28.048Z,5.50
2019-03-20T07:24:06.067Z,5.60
2019-03-20T07:24:44.122Z,5.60
2019-03-20T07:25:22.258Z,5.60
2019-03-20T07:26:00.284Z,5.60
2019-03-20T07:26:38.079Z,5.70
2019-03-20T07:27:16.122Z,5.70
2019-03-20T07:27:53.731Z,5.70
2019-03-20T07:28:31.499Z,5.70
2019-03-20T07:29:09.637Z,5.80
2019-03-20T07:29:47.572Z,5.80
2019-03-20T07:30:25.386Z,5.80
2019-03-20T07:31:02.817Z,5.90
2019-03-20T07:31:41.490Z,5.90
2019-03-20T07:32:18.900Z,5.90
2019-03-20T07:32:56.826Z,5.90
2019-03-20T07:33:34.523Z,5.90
2019-03-20T07:34:11.965Z,5.90
2019-03-20T07:34:52.502Z,5.90
2019-03-20T07:35:30.562Z,5.90
2019-03-20T07:36:08.888Z,5.90
2019-03-20T07:36:46.441Z,5.90
2019-03-20T07:37:24.331Z,5.90
2019-03-20T07:38:01.704Z,5.90
2019-03-20T07:38:39.458Z,5.90
2019-03-20T07:39:16.921Z,5.90
2019-03-20T07:39:54.839Z,5.90
2019-03-20T07:40:33.003Z,5.90
2019-03-20T07:41:10.590Z,5.90
2019-03-20T07:41:48.787Z,5.90
2019-03-20T07:42:26.753Z,5.90
2019-03-20T07:43:08.749Z,6.00
2019-03-20T07:43:43.673Z,6.00
2019-03-20T07:44:21.364Z,6.00
2019-03-20T07:44:59.172Z,6.00
2019-03-20T07:45:37.259Z,6.00
2019-03-20T07:46:14.945Z,6.00
2019-03-20T07:46:52.035Z,6.10
2019-03-20T07:47:29.841Z,6.10
2019-03-20T07:48:07.031Z,6.10
2019-03-20T07:48:44.758Z,6.20
2019-03-20T07:49:22.212Z,6.20
2019-03-20T07:49:59.303Z,6.30
2019-03-20T07:50:37.404Z,6.30
2019-03-20T07:51:15.589Z,6.40
2019-03-20T07:51:52.704Z,6.40
2019-03-20T07:52:30.748Z,6.40
2019-03-20T07:53:08.525Z,6.50
2019-03-20T07:53:46.184Z,6.50
2019-03-20T07:54:24.331Z,6.60
2019-03-20T07:55:02.058Z,6.60
2019-03-20T07:55:39.579Z,6.60
2019-03-20T07:56:17.345Z,6.70
2019-03-20T07:56:55.288Z,6.70
2019-03-20T07:57:33.118Z,6.70
2019-03-20T07:58:10.745Z,6.80
2019-03-20T07:58:48.487Z,6.80
2019-03-20T07:59:25.879Z,6.80
2019-03-20T08:00:02.856Z,6.80
2019-03-20T08:00:40.805Z,6.80
2019-03-20T08:01:20.320Z,6.80
2019-03-20T08:01:57.926Z,6.80
2019-03-20T08:02:35.675Z,6.80
2019-03-20T08:03:13.482Z,6.90
2019-03-20T08:03:51.065Z,6.90
2019-03-20T08:04:28.697Z,6.90
2019-03-20T08:05:07.945Z,6.90
2019-03-20T08:05:48.395Z,6.90
2019-03-20T08:06:27.250Z,6.90
2019-03-20T08:07:04.799Z,6.90
2019-03-20T08:07:42.646Z,6.90
2019-03-20T08:08:20.666Z,7.00
2019-03-20T08:08:58.416Z,7.00
2019-03-20T08:09:36.484Z,7.00
2019-03-20T08:10:14.977Z,7.00
2019-03-20T08:10:52.978Z,7.10
2019-03-20T08:11:31.176Z,7.10
2019-03-20T08:12:08.627Z,7.10
2019-03-20T08:12:46.114Z,7.10
2019-03-20T08:13:23.599Z,7.10
2019-03-20T08:14:01.079Z,7.10
2019-03-20T08:14:38.789Z,7.10
2019-03-20T08:15:16.752Z,7.10
2019-03-20T08:15:53.979Z,7.10
2019-03-20T08:16:31.709Z,7.10
2019-03-20T08:17:09.437Z,7.10
2019-03-20T08:17:47.029Z,7.20
2019-03-20T08:18:24.691Z,7.20
2019-03-20T08:19:01.768Z,7.10
2019-03-20T08:19:39.229Z,7.20
2019-03-20T08:20:17.261Z,7.20
2019-03-20T08:20:54.708Z,7.20
2019-03-20T08:21:32.791Z,7.20
2019-03-20T08:22:10.516Z,7.30
2019-03-20T08:22:47.627Z,7.30
2019-03-20T08:23:25.120Z,7.30
2019-03-20T08:24:02.888Z,7.30
2019-03-20T08:24:40.269Z,7.30
2019-03-20T08:25:17.857Z,7.30
2019-03-20T08:25:55.549Z,7.40
2019-03-20T08:26:33.581Z,7.40
2019-03-20T08:27:11.211Z,7.40
2019-03-20T08:27:48.987Z,7.50
2019-03-20T08:28:27.206Z,7.50